createdAt,value
2018-07-31T00:01:14.029Z,100.00
2018-07-31T00:03:42.887Z,100.00
2018-07-31T00:06:17.997Z,100.00
2018-07-31T00:08:47.893Z,100.00
2018-07-31T00:11:16.718Z,100.00
2018-07-31T00:13:45.557Z,100.00
2018-07-31T00:16:14.660Z,100.00
2018-07-31T00:18:43.616Z,100.00
2018-07-31T00:21:12.519Z,100.00
2018-07-31T00:23:41.348Z,100.00
2018-07-31T00:26:10.187Z,100.00
2018-07-31T00:28:39.028Z,100.00
2018-07-31T00:31:07.889Z,100.00
2018-07-31T00:33:36.735Z,100.00
2018-07-31T00:36:05.585Z,100.00
2018-07-31T00:38:34.478Z,100.00
2018-07-31T00:41:03.312Z,100.00
2018-07-31T00:43:32.166Z,100.00
2018-07-31T00:46:01.006Z,100.00
2018-07-31T00:48:29.739Z,100.00
2018-07-31T00:50:58.477Z,100.00
2018-07-31T00:53:27.253Z,100.00
2018-07-31T00:55:56.001Z,100.00
2018-07-31T00:58:24.734Z,100.00
2018-07-31T01:00:53.740Z,100.00
2018-07-31T01:03:22.491Z,100.00
2018-07-31T01:05:51.227Z,100.00
2018-07-31T01:08:20.041Z,100.00
2018-07-31T01:10:48.786Z,100.00
2018-07-31T01:13:17.553Z,100.00
2018-07-31T01:15:46.381Z,100.00
2018-07-31T01:18:15.104Z,100.00
2018-07-31T01:20:43.913Z,100.00
2018-07-31T01:23:12.634Z,100.00
2018-07-31T01:25:41.377Z,100.00
2018-07-31T01:28:10.168Z,100.00
2018-07-31T01:30:38.902Z,100.00
2018-07-31T01:33:07.657Z,100.00
2018-07-31T01:35:36.426Z,100.00
2018-07-31T01:38:05.150Z,100.00
2018-07-31T01:40:33.934Z,100.00
2018-07-31T01:43:02.674Z,100.00
2018-07-31T01:45:31.394Z,100.00
2018-07-31T01:48:00.116Z,100.00
2018-07-31T01:50:28.868Z,100.00
2018-07-31T01:52:57.569Z,100.00
2018-07-31T01:55:26.284Z,100.00
2018-07-31T01:57:55.006Z,100.00
2018-07-31T02:00:23.761Z,100.00
2018-07-31T02:02:52.462Z,100.00
2018-07-31T02:05:21.229Z,100.00
2018-07-31T02:07:50.020Z,100.00
2018-07-31T02:10:18.745Z,100.00
2018-07-31T02:12:47.505Z,100.00
2018-07-31T02:15:16.226Z,100.00
2018-07-31T02:17:44.955Z,100.00
2018-07-31T02:20:13.678Z,100.00
2018-07-31T02:22:42.440Z,100.00
2018-07-31T02:25:11.178Z,100.00
2018-07-31T02:27:39.902Z,100.00
2018-07-31T02:30:09.556Z,100.00
2018-07-31T02:32:39.158Z,100.00
2018-07-31T02:35:07.905Z,100.00
2018-07-31T02:37:36.617Z,100.00
2018-07-31T02:40:05.689Z,100.00
2018-07-31T02:42:34.403Z,100.00
2018-07-31T02:45:03.218Z,100.00
2018-07-31T02:47:31.923Z,100.00
2018-07-31T02:50:00.634Z,100.00
2018-07-31T02:52:29.382Z,100.00
2018-07-31T02:54:58.116Z,100.00
2018-07-31T02:57:26.873Z,100.00
2018-07-31T02:59:55.589Z,100.00
2018-07-31T03:02:24.350Z,100.00
2018-07-31T03:04:53.071Z,100.00
2018-07-31T03:07:21.810Z,100.00
2018-07-31T03:09:50.590Z,100.00
2018-07-31T03:12:19.304Z,100.00
2018-07-31T03:14:48.004Z,100.00
2018-07-31T03:17:16.774Z,100.00
2018-07-31T03:19:45.514Z,100.00
2018-07-31T03:22:14.281Z,100.00
2018-07-31T03:24:43.011Z,100.00
2018-07-31T03:27:12.502Z,100.00
2018-07-31T03:29:41.248Z,100.00
2018-07-31T03:32:10.070Z,100.00
2018-07-31T03:34:38.858Z,100.00
2018-07-31T03:37:07.587Z,100.00
2018-07-31T03:39:36.318Z,100.00
2018-07-31T03:42:05.030Z,100.00
2018-07-31T03:44:33.738Z,100.00
2018-07-31T03:47:02.513Z,100.00
2018-07-31T03:49:31.248Z,100.00
2018-07-31T03:51:59.980Z,100.00
2018-07-31T03:54:28.712Z,100.00
2018-07-31T03:56:57.438Z,100.00
2018-07-31T03:59:26.219Z,100.00
2018-07-31T04:01:54.951Z,100.00
2018-07-31T04:04:23.680Z,100.00
2018-07-31T04:06:52.442Z,100.00
2018-07-31T04:09:21.180Z,100.00
2018-07-31T04:11:49.903Z,100.00
2018-07-31T04:14:18.661Z,100.00
2018-07-31T04:16:47.423Z,100.00
2018-07-31T04:19:16.866Z,100.00
2018-07-31T04:21:45.632Z,100.00
2018-07-31T04:24:14.454Z,100.00
2018-07-31T04:26:43.245Z,100.00
2018-07-31T04:29:12.017Z,100.00
2018-07-31T04:31:40.818Z,100.00
2018-07-31T04:34:09.547Z,100.00
2018-07-31T04:36:38.294Z,100.00
2018-07-31T04:39:10.050Z,100.00
2018-07-31T04:41:38.778Z,100.00
2018-07-31T04:44:07.818Z,100.00
2018-07-31T04:46:36.923Z,100.00
2018-07-31T04:49:05.709Z,100.00
2018-07-31T04:51:34.421Z,100.00
2018-07-31T04:54:03.130Z,100.00
2018-07-31T04:56:32.118Z,100.00
2018-07-31T04:59:00.836Z,100.00
2018-07-31T05:01:29.557Z,100.00
2018-07-31T05:03:58.310Z,100.00
2018-07-31T05:06:27.083Z,100.00
2018-07-31T05:08:55.872Z,100.00
2018-07-31T05:11:24.594Z,100.00
2018-07-31T05:13:53.345Z,100.00
2018-07-31T05:16:22.050Z,100.00
2018-07-31T05:18:50.793Z,100.00
2018-07-31T05:21:19.584Z,100.00
2018-07-31T05:23:48.306Z,100.00
2018-07-31T05:26:17.038Z,100.00
2018-07-31T05:28:45.750Z,100.00
2018-07-31T05:31:15.946Z,100.00
2018-07-31T05:33:44.711Z,100.00
2018-07-31T05:36:13.417Z,100.00
2018-07-31T05:38:42.374Z,100.00
2018-07-31T05:41:11.293Z,100.00
2018-07-31T05:43:40.009Z,100.00
2018-07-31T05:46:08.806Z,100.00
2018-07-31T05:48:37.478Z,100.00
2018-07-31T05:51:06.188Z,100.00
2018-07-31T05:53:34.914Z,100.00
2018-07-31T05:56:03.818Z,100.00
2018-07-31T05:58:32.553Z,100.00
2018-07-31T06:01:01.274Z,100.00
2018-07-31T06:03:30.025Z,100.00
2018-07-31T06:05:58.824Z,100.00
2018-07-31T06:08:27.736Z,100.00
2018-07-31T06:10:56.611Z,100.00
2018-07-31T06:13:25.353Z,100.00
2018-07-31T06:15:54.042Z,100.00
2018-07-31T06:18:22.782Z,100.00
2018-07-31T06:20:51.589Z,100.00
2018-07-31T06:23:20.304Z,100.00
2018-07-31T06:25:49.062Z,100.00
2018-07-31T06:28:17.752Z,100.00
2018-07-31T06:30:46.450Z,99.07
2018-07-31T06:33:15.136Z,97.50
2018-07-31T06:35:43.848Z,98.52
2018-07-31T06:38:12.540Z,97.74
2018-07-31T06:40:41.434Z,97.64
2018-07-31T06:43:10.130Z,97.07
2018-07-31T06:45:38.827Z,96.23
2018-07-31T06:48:07.525Z,95.13
2018-07-31T06:50:36.549Z,94.23
2018-07-31T06:53:05.254Z,94.62
2018-07-31T06:55:34.046Z,94.44
2018-07-31T06:58:02.802Z,90.71
2018-07-31T07:00:31.517Z,89.19
2018-07-31T07:03:00.225Z,90.17
2018-07-31T07:05:29.002Z,89.82
2018-07-31T07:07:57.886Z,88.48
2018-07-31T07:10:26.587Z,85.76
2018-07-31T07:12:55.299Z,86.08
2018-07-31T07:15:24.175Z,85.37
2018-07-31T07:17:52.864Z,83.73
2018-07-31T07:20:21.556Z,80.97
2018-07-31T07:22:50.553Z,79.41
2018-07-31T07:25:19.252Z,80.49
2018-07-31T07:27:48.019Z,76.69
2018-07-31T07:30:16.726Z,72.06
2018-07-31T07:32:45.434Z,72.25
2018-07-31T07:35:14.166Z,72.49
2018-07-31T07:37:42.882Z,71.57
2018-07-31T07:40:11.744Z,71.94
2018-07-31T07:42:40.440Z,73.46
2018-07-31T07:45:09.760Z,74.26
2018-07-31T07:47:38.478Z,75.10
2018-07-31T07:50:07.277Z,74.87
2018-07-31T07:52:36.053Z,77.30
2018-07-31T07:55:04.760Z,77.08
2018-07-31T07:57:33.457Z,77.59
2018-07-31T08:00:02.184Z,77.32
2018-07-31T08:02:30.889Z,76.18
2018-07-31T08:04:59.626Z,78.08
2018-07-31T08:07:28.497Z,78.28
2018-07-31T08:09:57.208Z,78.74
2018-07-31T08:12:25.923Z,76.18
2018-07-31T08:14:54.723Z,75.85
2018-07-31T08:17:23.415Z,76.30
2018-07-31T08:19:52.135Z,76.04
2018-07-31T08:22:20.862Z,73.08
2018-07-31T08:24:49.603Z,73.28
2018-07-31T08:27:18.336Z,71.80
2018-07-31T08:29:47.100Z,73.94
2018-07-31T08:32:36.534Z,73.59
2018-07-31T08:35:05.324Z,76.79
2018-07-31T08:37:34.199Z,74.01
2018-07-31T08:40:02.929Z,72.25
2018-07-31T08:42:31.680Z,75.51
2018-07-31T08:45:00.413Z,73.60
2018-07-31T08:47:29.254Z,73.31
2018-07-31T08:49:57.955Z,74.36
2018-07-31T08:52:26.641Z,76.07
2018-07-31T08:54:55.337Z,75.91
2018-07-31T08:57:24.025Z,74.77
2018-07-31T08:59:52.709Z,74.92
2018-07-31T09:02:21.562Z,75.02
2018-07-31T09:04:50.280Z,75.05
2018-07-31T09:07:19.049Z,72.67
2018-07-31T09:09:47.749Z,71.51
2018-07-31T09:12:16.519Z,70.03
2018-07-31T09:14:45.259Z,67.42
2018-07-31T09:17:13.944Z,69.27
2018-07-31T09:19:42.647Z,69.42
2018-07-31T09:22:11.423Z,69.68
2018-07-31T09:24:40.296Z,66.31
2018-07-31T09:27:08.976Z,65.94
2018-07-31T09:29:37.719Z,64.98
2018-07-31T09:32:06.425Z,66.21
2018-07-31T09:34:40.178Z,62.58
2018-07-31T09:37:08.885Z,61.29
2018-07-31T09:39:37.612Z,62.07
2018-07-31T09:42:06.415Z,65.06
2018-07-31T09:44:35.154Z,64.41
2018-07-31T09:47:04.346Z,67.12
2018-07-31T09:49:33.065Z,67.65
2018-07-31T09:52:01.803Z,70.07
2018-07-31T09:54:30.626Z,66.14
2018-07-31T09:56:59.442Z,63.93
2018-07-31T09:59:28.310Z,63.39
2018-07-31T10:01:57.058Z,59.46
2018-07-31T10:04:25.823Z,57.56
2018-07-31T10:06:54.580Z,54.72
2018-07-31T10:09:24.292Z,55.76
2018-07-31T10:11:53.133Z,53.88
2018-07-31T10:14:21.838Z,57.71
2018-07-31T10:16:50.636Z,59.15
2018-07-31T10:19:19.368Z,61.74
2018-07-31T10:21:48.114Z,63.00
2018-07-31T10:24:16.882Z,64.98
2018-07-31T10:26:45.970Z,67.07
2018-07-31T10:29:14.699Z,68.81
2018-07-31T10:31:43.517Z,68.22
2018-07-31T10:34:12.305Z,68.52
2018-07-31T10:36:41.011Z,66.35
2018-07-31T10:39:09.745Z,66.25
2018-07-31T10:41:38.457Z,66.93
2018-07-31T10:44:07.224Z,67.21
2018-07-31T10:46:36.034Z,67.37
2018-07-31T10:49:04.768Z,67.07
2018-07-31T10:51:33.473Z,66.12
2018-07-31T10:54:02.214Z,66.21
2018-07-31T10:56:30.968Z,64.85
2018-07-31T10:58:59.842Z,65.08
2018-07-31T11:01:28.542Z,65.75
2018-07-31T11:03:58.554Z,66.24
2018-07-31T11:06:27.443Z,67.08
2018-07-31T11:08:56.269Z,67.95
2018-07-31T11:11:25.078Z,67.80
2018-07-31T11:13:53.966Z,68.90
2018-07-31T11:16:22.744Z,66.34
2018-07-31T11:18:51.548Z,65.66
2018-07-31T11:21:20.327Z,66.45
2018-07-31T11:23:49.053Z,67.87
2018-07-31T11:26:17.982Z,66.40
2018-07-31T11:28:46.816Z,67.04
2018-07-31T11:31:15.569Z,64.91
2018-07-31T11:33:44.366Z,65.95
2018-07-31T11:36:13.062Z,65.93
2018-07-31T11:38:41.770Z,65.15
2018-07-31T11:41:10.548Z,63.22
2018-07-31T11:43:39.259Z,59.57
2018-07-31T11:46:08.252Z,56.67
2018-07-31T11:48:36.940Z,56.71
2018-07-31T11:51:05.642Z,56.87
2018-07-31T11:53:34.481Z,59.16
2018-07-31T11:56:03.216Z,55.77
2018-07-31T11:58:32.067Z,56.13
2018-07-31T12:01:00.895Z,55.58
2018-07-31T12:03:29.787Z,55.84
2018-07-31T12:05:58.510Z,55.42
2018-07-31T12:08:27.212Z,53.36
2018-07-31T12:10:55.928Z,53.42
2018-07-31T12:13:24.646Z,49.61
2018-07-31T12:15:53.358Z,51.45
2018-07-31T12:18:22.125Z,51.89
2018-07-31T12:20:50.843Z,48.08
2018-07-31T12:23:19.561Z,48.17
2018-07-31T12:25:48.307Z,47.20
2018-07-31T12:28:17.325Z,46.59
2018-07-31T12:30:46.130Z,48.93
2018-07-31T12:33:14.888Z,43.39
2018-07-31T12:35:43.525Z,40.45
2018-07-31T12:38:12.272Z,41.47
2018-07-31T12:40:40.948Z,44.11
2018-07-31T12:43:09.921Z,45.73
2018-07-31T12:45:38.673Z,49.52
2018-07-31T12:48:07.457Z,46.86
2018-07-31T12:50:36.155Z,48.87
2018-07-31T12:53:04.902Z,47.08
2018-07-31T12:55:33.581Z,47.14
2018-07-31T12:58:02.279Z,49.88
2018-07-31T13:00:31.169Z,50.51
2018-07-31T13:02:59.877Z,52.54
2018-07-31T13:05:28.753Z,52.21
2018-07-31T13:07:57.453Z,54.93
2018-07-31T13:10:26.153Z,51.08
2018-07-31T13:12:54.850Z,51.74
2018-07-31T13:15:23.585Z,53.13
2018-07-31T13:17:52.323Z,50.22
2018-07-31T13:20:21.020Z,51.01
2018-07-31T13:22:49.755Z,52.11
2018-07-31T13:25:18.448Z,51.73
2018-07-31T13:27:47.228Z,51.37
2018-07-31T13:30:15.957Z,55.30
2018-07-31T13:32:44.668Z,55.29
2018-07-31T13:35:13.556Z,55.63
2018-07-31T13:37:42.296Z,54.41
2018-07-31T13:40:11.145Z,56.02
2018-07-31T13:42:40.046Z,58.61
2018-07-31T13:45:08.745Z,57.83
2018-07-31T13:47:37.434Z,58.41
2018-07-31T13:50:06.122Z,62.17
2018-07-31T13:52:34.817Z,69.56
2018-07-31T13:55:03.600Z,69.92
2018-07-31T13:57:32.309Z,69.61
2018-07-31T14:00:01.008Z,68.81
2018-07-31T14:02:29.738Z,70.34
2018-07-31T14:04:58.557Z,70.53
2018-07-31T14:07:27.328Z,67.13
2018-07-31T14:09:56.009Z,67.22
2018-07-31T14:12:24.866Z,66.18
2018-07-31T14:14:53.570Z,65.15
2018-07-31T14:17:22.252Z,67.02
2018-07-31T14:19:51.086Z,65.12
2018-07-31T14:22:19.789Z,63.50
2018-07-31T14:24:48.662Z,62.10
2018-07-31T14:27:17.381Z,62.36
2018-07-31T14:29:46.066Z,62.85
2018-07-31T14:32:14.785Z,63.41
2018-07-31T14:34:43.569Z,64.23
2018-07-31T14:37:12.290Z,63.46
2018-07-31T14:39:41.012Z,62.96
2018-07-31T14:42:09.714Z,65.19
2018-07-31T14:44:38.463Z,64.37
2018-07-31T14:47:07.162Z,63.89
2018-07-31T14:49:35.858Z,64.99
2018-07-31T14:52:04.549Z,63.73
2018-07-31T14:54:33.257Z,63.13
2018-07-31T14:57:02.164Z,63.49
2018-07-31T14:59:30.912Z,62.04
2018-07-31T15:01:59.615Z,61.99
2018-07-31T15:04:28.317Z,62.80
2018-07-31T15:06:57.009Z,63.75
2018-07-31T15:09:25.738Z,65.84
2018-07-31T15:11:54.436Z,66.77
2018-07-31T15:14:23.139Z,65.83
2018-07-31T15:16:51.868Z,66.74
2018-07-31T15:19:20.565Z,66.18
2018-07-31T15:21:49.261Z,64.02
2018-07-31T15:24:17.954Z,62.75
2018-07-31T15:26:46.663Z,63.43
2018-07-31T15:29:15.389Z,62.95
2018-07-31T15:31:44.103Z,63.31
2018-07-31T15:34:12.864Z,63.91
2018-07-31T15:36:41.717Z,64.94
2018-07-31T15:39:12.794Z,65.92
2018-07-31T15:41:41.843Z,64.52
2018-07-31T15:44:10.973Z,63.97
2018-07-31T15:46:39.665Z,64.87
2018-07-31T15:49:08.413Z,64.46
2018-07-31T15:51:37.103Z,63.45
2018-07-31T15:54:06.209Z,64.08
2018-07-31T15:56:35.298Z,64.03
2018-07-31T15:59:04.338Z,63.43
2018-07-31T16:01:33.453Z,63.48
2018-07-31T16:04:02.626Z,64.57
2018-07-31T16:06:31.826Z,64.39
2018-07-31T16:09:01.032Z,64.52
2018-07-31T16:11:30.277Z,64.69
2018-07-31T16:13:59.409Z,64.88
2018-07-31T16:16:28.617Z,66.19
2018-07-31T16:18:57.813Z,66.40
2018-07-31T16:21:27.022Z,67.15
2018-07-31T16:23:56.118Z,68.12
2018-07-31T16:26:25.101Z,67.25
2018-07-31T16:28:53.781Z,68.27
2018-07-31T16:31:22.847Z,68.83
2018-07-31T16:33:51.815Z,68.08
2018-07-31T16:36:20.658Z,67.48
2018-07-31T16:38:49.973Z,68.19
2018-07-31T16:41:19.190Z,68.23
2018-07-31T16:43:48.158Z,73.90
2018-07-31T16:46:17.641Z,78.74
2018-07-31T16:48:46.898Z,84.06
2018-07-31T16:51:16.082Z,89.70
2018-07-31T16:53:45.262Z,93.96
2018-07-31T16:56:14.461Z,96.48
2018-07-31T16:58:43.655Z,97.60
2018-07-31T17:01:12.885Z,97.45
2018-07-31T17:03:42.050Z,97.83
2018-07-31T17:06:11.579Z,97.79
2018-07-31T17:08:40.661Z,99.36
2018-07-31T17:11:09.752Z,100.00
2018-07-31T17:13:38.977Z,100.00
2018-07-31T17:16:08.317Z,100.00
2018-07-31T17:18:37.469Z,100.00
2018-07-31T17:21:06.641Z,100.00
2018-07-31T17:23:35.945Z,100.00
2018-07-31T17:26:05.077Z,100.00
2018-07-31T17:28:34.483Z,100.00
2018-07-31T17:31:03.641Z,100.00
2018-07-31T17:33:32.902Z,100.00
2018-07-31T17:36:01.867Z,100.00
2018-07-31T17:38:31.182Z,100.00
2018-07-31T17:41:00.337Z,100.00
2018-07-31T17:43:29.438Z,100.00
2018-07-31T17:45:58.154Z,100.00
2018-07-31T17:48:26.910Z,100.00
2018-07-31T17:50:55.673Z,100.00
2018-07-31T17:53:24.420Z,100.00
2018-07-31T17:55:53.290Z,100.00
2018-07-31T17:58:22.812Z,100.00
2018-07-31T18:00:51.555Z,100.00
2018-07-31T18:03:20.285Z,100.00
2018-07-31T18:05:48.973Z,100.00
2018-07-31T18:08:17.693Z,100.00
2018-07-31T18:10:46.410Z,100.00
2018-07-31T18:13:15.141Z,100.00
2018-07-31T18:15:43.914Z,100.00
2018-07-31T18:18:12.653Z,100.00
2018-07-31T18:20:41.493Z,100.00
2018-07-31T18:23:10.234Z,100.00
2018-07-31T18:25:38.965Z,100.00
2018-07-31T18:28:07.743Z,100.00
2018-07-31T18:30:36.448Z,100.00
2018-07-31T18:33:05.169Z,100.00
2018-07-31T18:35:34.001Z,100.00
2018-07-31T18:38:02.735Z,100.00
2018-07-31T18:40:31.530Z,100.00
2018-07-31T18:43:00.237Z,100.00
2018-07-31T18:45:29.063Z,100.00
2018-07-31T18:47:57.898Z,100.00
2018-07-31T18:50:26.645Z,100.00
2018-07-31T18:52:55.415Z,100.00
2018-07-31T18:55:24.149Z,100.00
2018-07-31T18:57:52.909Z,100.00
2018-07-31T19:00:21.627Z,100.00
2018-07-31T19:02:50.373Z,100.00
2018-07-31T19:05:19.085Z,100.00
2018-07-31T19:07:47.833Z,100.00
2018-07-31T19:10:16.560Z,100.00
2018-07-31T19:12:45.646Z,100.00
2018-07-31T19:15:14.493Z,100.00
2018-07-31T19:17:43.300Z,100.00
2018-07-31T19:20:12.176Z,100.00
2018-07-31T19:22:40.909Z,100.00
2018-07-31T19:25:09.641Z,100.00
2018-07-31T19:27:38.447Z,100.00
2018-07-31T19:30:07.381Z,100.00
2018-07-31T19:32:36.141Z,100.00
2018-07-31T19:35:04.910Z,100.00
2018-07-31T19:37:33.893Z,100.00
2018-07-31T19:40:02.626Z,100.00
2018-07-31T19:42:31.337Z,100.00
2018-07-31T19:45:00.181Z,100.00
2018-07-31T19:47:28.958Z,100.00
2018-07-31T19:49:57.897Z,100.00
2018-07-31T19:52:26.668Z,100.00
2018-07-31T19:54:55.620Z,100.00
2018-07-31T19:57:24.377Z,100.00
2018-07-31T19:59:53.100Z,100.00
2018-07-31T20:02:21.896Z,100.00
2018-07-31T20:04:50.657Z,100.00
2018-07-31T20:07:19.454Z,100.00
2018-07-31T20:09:48.374Z,100.00
2018-07-31T20:12:17.114Z,100.00
2018-07-31T20:14:45.886Z,100.00
2018-07-31T20:17:14.645Z,100.00
2018-07-31T20:19:43.372Z,100.00
2018-07-31T20:22:12.089Z,100.00
2018-07-31T20:24:40.870Z,100.00
2018-07-31T20:27:09.641Z,100.00
2018-07-31T20:29:38.354Z,100.00
2018-07-31T20:32:07.089Z,100.00
2018-07-31T20:34:35.885Z,100.00
2018-07-31T20:37:04.596Z,100.00
2018-07-31T20:39:33.487Z,100.00
2018-07-31T20:42:02.206Z,100.00
2018-07-31T20:44:30.926Z,100.00
2018-07-31T20:46:59.656Z,100.00
2018-07-31T20:49:28.394Z,100.00
2018-07-31T20:51:57.121Z,100.00
2018-07-31T20:54:25.820Z,100.00
2018-07-31T20:56:54.537Z,100.00
2018-07-31T20:59:23.567Z,100.00
2018-07-31T21:01:52.303Z,100.00
2018-07-31T21:04:21.043Z,100.00
2018-07-31T21:06:49.774Z,100.00
2018-07-31T21:09:21.259Z,100.00
2018-07-31T21:11:50.976Z,100.00
2018-07-31T21:14:20.065Z,100.00
2018-07-31T21:16:48.800Z,100.00
2018-07-31T21:19:17.534Z,100.00
2018-07-31T21:21:46.260Z,100.00
2018-07-31T21:24:15.041Z,100.00
2018-07-31T21:26:43.786Z,100.00
2018-07-31T21:29:12.689Z,100.00
2018-07-31T21:31:41.653Z,100.00
2018-07-31T21:34:10.423Z,100.00
2018-07-31T21:36:39.234Z,100.00
2018-07-31T21:39:09.812Z,100.00
2018-07-31T21:41:38.793Z,100.00
2018-07-31T21:44:07.561Z,100.00
2018-07-31T21:46:36.402Z,100.00
2018-07-31T21:49:05.170Z,100.00
2018-07-31T21:51:33.913Z,100.00
2018-07-31T21:54:02.733Z,100.00
2018-07-31T21:56:31.656Z,100.00
2018-07-31T21:59:00.457Z,100.00
2018-07-31T22:01:29.186Z,100.00
2018-07-31T22:03:57.943Z,100.00
2018-07-31T22:06:26.711Z,100.00
2018-07-31T22:08:55.461Z,100.00
2018-07-31T22:11:24.284Z,100.00
2018-07-31T22:13:53.029Z,100.00
2018-07-31T22:16:21.771Z,100.00
2018-07-31T22:18:50.528Z,100.00
2018-07-31T22:21:19.344Z,100.00
2018-07-31T22:23:48.177Z,100.00
2018-07-31T22:26:16.991Z,100.00
2018-07-31T22:28:45.715Z,100.00
2018-07-31T22:31:14.737Z,100.00
2018-07-31T22:33:43.538Z,100.00
2018-07-31T22:36:12.290Z,100.00
2018-07-31T22:38:41.022Z,100.00
2018-07-31T22:41:09.828Z,100.00
2018-07-31T22:43:38.608Z,100.00
2018-07-31T22:46:07.371Z,100.00
2018-07-31T22:48:36.102Z,100.00
2018-07-31T22:51:04.859Z,100.00
2018-07-31T22:53:33.591Z,100.00
2018-07-31T22:56:02.302Z,100.00
2018-07-31T22:58:31.036Z,100.00
2018-07-31T23:00:59.801Z,100.00
2018-07-31T23:03:28.510Z,100.00
2018-07-31T23:05:57.216Z,100.00
2018-07-31T23:08:26.024Z,100.00
2018-07-31T23:10:54.764Z,100.00
2018-07-31T23:13:23.580Z,100.00
2018-07-31T23:15:52.314Z,100.00
2018-07-31T23:18:21.097Z,100.00
2018-07-31T23:20:49.894Z,100.00
2018-07-31T23:23:18.652Z,100.00
2018-07-31T23:25:47.503Z,100.00
2018-07-31T23:28:16.238Z,100.00
2018-07-31T23:30:44.961Z,100.00
2018-07-31T23:33:13.690Z,100.00
2018-07-31T23:35:42.426Z,100.00
2018-07-31T23:38:11.181Z,100.00
2018-07-31T23:40:39.919Z,100.00
2018-07-31T23:43:08.641Z,100.00
2018-07-31T23:45:37.499Z,100.00
2018-07-31T23:48:06.385Z,100.00
2018-07-31T23:50:35.168Z,100.00
2018-07-31T23:53:03.911Z,100.00
2018-07-31T23:55:32.637Z,100.00
2018-07-31T23:58:01.391Z,100.00
